<?xml version="1.0" encoding="UTF-8"?><gpx creator="Wikiloc - http://www.wikiloc.com" version="1.1" xmlns="http://www.topografix.com/GPX/1/1" xmlns:xsi="http://www.w3.org/2001/XMLSchema-instance" xsi:schemaLocation="http://www.topografix.com/GPX/1/1 http://www.topografix.com/GPX/1/1/gpx.xsd"><wpt lat="39.592988" lon="-7.202413"><ele>546.0</ele><time>2015-07-06T13:55:17Z</time><name>Mirador Morrón de Valencia</name><cmt></cmt><desc></desc></wpt><wpt lat="39.597875" lon="-7.204371"><ele>561.0</ele><time>2015-07-06T13:56:50Z</time><name>Mirador del Legio de la Fuente</name><cmt></cmt><desc></desc></wpt><wpt lat="39.603111" lon="-7.197163"><ele>342.0</ele><time>2015-07-06T14:00:55Z</time><name>Carbajo</name><cmt></cmt><desc></desc></wpt><wpt lat="39.604083" lon="-7.209179"><ele>580.0</ele><time>2015-07-07T11:51:33Z</time><name>Mirador de la Polea</name><cmt></cmt><desc></desc></wpt><wpt lat="39.600231" lon="-7.208046"><ele>465.0</ele><time>2015-07-07T12:17:09Z</time><name>Refugio de la Pedriza</name><cmt></cmt><desc></desc></wpt><wpt lat="39.603414" lon="-7.199744"><ele>356.0</ele><time>2015-07-24T12:20:03Z</time><name>Merendero de La Polea</name><cmt></cmt><desc></desc></wpt><trk><name>SL-CC 133 'Data Mato - La Pirula' (Carbajo)</name><cmt></cmt><desc></desc><trkseg><trkpt lat="39.603093" lon="-7.197161"><ele>342.0</ele><time>2015-01-01T10:00:41Z</time></trkpt><trkpt lat="39.602921" lon="-7.197128"><ele>342.0</ele><time>2015-01-01T10:01:22Z</time></trkpt><trkpt lat="39.602807" lon="-7.197305"><ele>343.2</ele><time>2015-01-01T10:02:04Z</time></trkpt><trkpt lat="39.602730" lon="-7.197370"><ele>343.9</ele><time>2015-01-01T10:02:45Z</time></trkpt><trkpt lat="39.602480" lon="-7.197410"><ele>345.9</ele><time>2015-01-01T10:03:27Z</time></trkpt><trkpt lat="39.601699" lon="-7.197814"><ele>359.9</ele><time>2015-01-01T10:04:08Z</time></trkpt><trkpt lat="39.601478" lon="-7.197884"><ele>363.4</ele><time>2015-01-01T10:04:49Z</time></trkpt><trkpt lat="39.601068" lon="-7.197764"><ele>369.1</ele><time>2015-01-01T10:05:31Z</time></trkpt><trkpt lat="39.600811" lon="-7.197616"><ele>369.2</ele><time>2015-01-01T10:06:12Z</time></trkpt><trkpt lat="39.600771" lon="-7.197646"><ele>369.5</ele><time>2015-01-01T10:06:54Z</time></trkpt><trkpt lat="39.600663" lon="-7.197821"><ele>371.9</ele><time>2015-01-01T10:07:35Z</time></trkpt><trkpt lat="39.599547" lon="-7.198426"><ele>382.8</ele><time>2015-01-01T10:08:16Z</time></trkpt><trkpt lat="39.599398" lon="-7.198553"><ele>385.4</ele><time>2015-01-01T10:08:58Z</time></trkpt><trkpt lat="39.599397" lon="-7.198820"><ele>390.9</ele><time>2015-01-01T10:09:39Z</time></trkpt><trkpt lat="39.599333" lon="-7.198918"><ele>393.4</ele><time>2015-01-01T10:10:21Z</time></trkpt><trkpt lat="39.598817" lon="-7.199179"><ele>400.5</ele><time>2015-01-01T10:11:02Z</time></trkpt><trkpt lat="39.598710" lon="-7.199220"><ele>402.0</ele><time>2015-01-01T10:11:43Z</time></trkpt><trkpt lat="39.598200" lon="-7.199400"><ele>407.2</ele><time>2015-01-01T10:12:25Z</time></trkpt><trkpt lat="39.597911" lon="-7.199578"><ele>411.0</ele><time>2015-01-01T10:13:06Z</time></trkpt><trkpt lat="39.597765" lon="-7.199716"><ele>413.7</ele><time>2015-01-01T10:13:48Z</time></trkpt><trkpt lat="39.597738" lon="-7.199749"><ele>414.5</ele><time>2015-01-01T10:14:29Z</time></trkpt><trkpt lat="39.597692" lon="-7.199808"><ele>415.9</ele><time>2015-01-01T10:15:10Z</time></trkpt><trkpt lat="39.597649" lon="-7.199835"><ele>416.2</ele><time>2015-01-01T10:15:52Z</time></trkpt><trkpt lat="39.597564" lon="-7.199875"><ele>416.1</ele><time>2015-01-01T10:16:33Z</time></trkpt><trkpt lat="39.597513" lon="-7.199909"><ele>416.2</ele><time>2015-01-01T10:17:15Z</time></trkpt><trkpt lat="39.597411" lon="-7.199987"><ele>416.8</ele><time>2015-01-01T10:17:56Z</time></trkpt><trkpt lat="39.597358" lon="-7.200079"><ele>419.0</ele><time>2015-01-01T10:18:37Z</time></trkpt><trkpt lat="39.597291" lon="-7.200124"><ele>419.8</ele><time>2015-01-01T10:19:19Z</time></trkpt><trkpt lat="39.597240" lon="-7.200195"><ele>421.5</ele><time>2015-01-01T10:20:00Z</time></trkpt><trkpt lat="39.597150" lon="-7.200285"><ele>424.2</ele><time>2015-01-01T10:20:42Z</time></trkpt><trkpt lat="39.596886" lon="-7.200606"><ele>433.6</ele><time>2015-01-01T10:21:23Z</time></trkpt><trkpt lat="39.596761" lon="-7.200778"><ele>438.8</ele><time>2015-01-01T10:22:04Z</time></trkpt><trkpt lat="39.596550" lon="-7.201080"><ele>444.9</ele><time>2015-01-01T10:22:46Z</time></trkpt><trkpt lat="39.596430" lon="-7.201240"><ele>448.7</ele><time>2015-01-01T10:23:27Z</time></trkpt><trkpt lat="39.596380" lon="-7.201450"><ele>455.7</ele><time>2015-01-01T10:24:09Z</time></trkpt><trkpt lat="39.596210" lon="-7.201670"><ele>462.2</ele><time>2015-01-01T10:24:50Z</time></trkpt><trkpt lat="39.596155" lon="-7.201830"><ele>465.3</ele><time>2015-01-01T10:25:31Z</time></trkpt><trkpt lat="39.596116" lon="-7.201939"><ele>467.0</ele><time>2015-01-01T10:26:13Z</time></trkpt><trkpt lat="39.596050" lon="-7.202130"><ele>473.8</ele><time>2015-01-01T10:26:54Z</time></trkpt><trkpt lat="39.596010" lon="-7.202180"><ele>474.8</ele><time>2015-01-01T10:27:36Z</time></trkpt><trkpt lat="39.595880" lon="-7.202280"><ele>476.0</ele><time>2015-01-01T10:28:17Z</time></trkpt><trkpt lat="39.595630" lon="-7.202430"><ele>480.1</ele><time>2015-01-01T10:28:58Z</time></trkpt><trkpt lat="39.595600" lon="-7.202470"><ele>481.3</ele><time>2015-01-01T10:29:40Z</time></trkpt><trkpt lat="39.595610" lon="-7.202526"><ele>483.6</ele><time>2015-01-01T10:30:21Z</time></trkpt><trkpt lat="39.595560" lon="-7.202540"><ele>483.5</ele><time>2015-01-01T10:31:03Z</time></trkpt><trkpt lat="39.595441" lon="-7.202568"><ele>485.2</ele><time>2015-01-01T10:31:44Z</time></trkpt><trkpt lat="39.595284" lon="-7.202584"><ele>486.7</ele><time>2015-01-01T10:32:25Z</time></trkpt><trkpt lat="39.595280" lon="-7.202630"><ele>488.2</ele><time>2015-01-01T10:33:07Z</time></trkpt><trkpt lat="39.595040" lon="-7.202730"><ele>494.3</ele><time>2015-01-01T10:33:48Z</time></trkpt><trkpt lat="39.594886" lon="-7.202789"><ele>497.9</ele><time>2015-01-01T10:34:30Z</time></trkpt><trkpt lat="39.594780" lon="-7.202850"><ele>500.8</ele><time>2015-01-01T10:35:11Z</time></trkpt><trkpt lat="39.594700" lon="-7.202930"><ele>503.7</ele><time>2015-01-01T10:35:52Z</time></trkpt><trkpt lat="39.594460" lon="-7.203030"><ele>510.3</ele><time>2015-01-01T10:36:34Z</time></trkpt><trkpt lat="39.594350" lon="-7.203050"><ele>513.9</ele><time>2015-01-01T10:37:15Z</time></trkpt><trkpt lat="39.594280" lon="-7.203000"><ele>515.1</ele><time>2015-01-01T10:37:57Z</time></trkpt><trkpt lat="39.594240" lon="-7.203050"><ele>517.5</ele><time>2015-01-01T10:38:38Z</time></trkpt><trkpt lat="39.594090" lon="-7.203060"><ele>520.3</ele><time>2015-01-01T10:39:19Z</time></trkpt><trkpt lat="39.594010" lon="-7.203140"><ele>522.2</ele><time>2015-01-01T10:40:01Z</time></trkpt><trkpt lat="39.593613" lon="-7.203349"><ele>531.3</ele><time>2015-01-01T10:40:42Z</time></trkpt><trkpt lat="39.593557" lon="-7.203353"><ele>532.3</ele><time>2015-01-01T10:41:24Z</time></trkpt><trkpt lat="39.593523" lon="-7.203357"><ele>532.9</ele><time>2015-01-01T10:42:05Z</time></trkpt><trkpt lat="39.593420" lon="-7.203330"><ele>534.4</ele><time>2015-01-01T10:42:46Z</time></trkpt><trkpt lat="39.593360" lon="-7.203380"><ele>535.9</ele><time>2015-01-01T10:43:28Z</time></trkpt><trkpt lat="39.593280" lon="-7.203610"><ele>538.8</ele><time>2015-01-01T10:44:09Z</time></trkpt><trkpt lat="39.593279" lon="-7.203713"><ele>539.4</ele><time>2015-01-01T10:44:51Z</time></trkpt><trkpt lat="39.593341" lon="-7.203775"><ele>539.1</ele><time>2015-01-01T10:45:32Z</time></trkpt><trkpt lat="39.593370" lon="-7.203800"><ele>539.2</ele><time>2015-01-01T10:46:13Z</time></trkpt><trkpt lat="39.593520" lon="-7.203940"><ele>539.6</ele><time>2015-01-01T10:46:55Z</time></trkpt><trkpt lat="39.593930" lon="-7.204230"><ele>538.9</ele><time>2015-01-01T10:47:36Z</time></trkpt><trkpt lat="39.594280" lon="-7.204460"><ele>540.0</ele><time>2015-01-01T10:48:18Z</time></trkpt><trkpt lat="39.594670" lon="-7.204690"><ele>540.8</ele><time>2015-01-01T10:48:59Z</time></trkpt><trkpt lat="39.594680" lon="-7.204680"><ele>540.7</ele><time>2015-01-01T10:49:40Z</time></trkpt><trkpt lat="39.594830" lon="-7.204760"><ele>541.2</ele><time>2015-01-01T10:50:22Z</time></trkpt><trkpt lat="39.595130" lon="-7.204980"><ele>543.3</ele><time>2015-01-01T10:51:03Z</time></trkpt><trkpt lat="39.595880" lon="-7.205440"><ele>551.1</ele><time>2015-01-01T10:51:45Z</time></trkpt><trkpt lat="39.596340" lon="-7.205720"><ele>558.6</ele><time>2015-01-01T10:52:26Z</time></trkpt><trkpt lat="39.597130" lon="-7.206200"><ele>567.3</ele><time>2015-01-01T10:53:07Z</time></trkpt><trkpt lat="39.597380" lon="-7.206390"><ele>565.7</ele><time>2015-01-01T10:53:49Z</time></trkpt><trkpt lat="39.597510" lon="-7.206690"><ele>564.7</ele><time>2015-01-01T10:54:30Z</time></trkpt><trkpt lat="39.597360" lon="-7.207470"><ele>568.2</ele><time>2015-01-01T10:55:12Z</time></trkpt><trkpt lat="39.597360" lon="-7.207760"><ele>571.3</ele><time>2015-01-01T10:55:53Z</time></trkpt><trkpt lat="39.597390" lon="-7.208040"><ele>572.7</ele><time>2015-01-01T10:56:34Z</time></trkpt><trkpt lat="39.597530" lon="-7.208600"><ele>568.5</ele><time>2015-01-01T10:57:16Z</time></trkpt><trkpt lat="39.597840" lon="-7.209410"><ele>558.8</ele><time>2015-01-01T10:57:57Z</time></trkpt><trkpt lat="39.597967" lon="-7.209747"><ele>554.5</ele><time>2015-01-01T10:58:39Z</time></trkpt><trkpt lat="39.598090" lon="-7.210080"><ele>551.8</ele><time>2015-01-01T10:59:20Z</time></trkpt><trkpt lat="39.598160" lon="-7.210380"><ele>550.2</ele><time>2015-01-01T11:00:01Z</time></trkpt><trkpt lat="39.598220" lon="-7.210690"><ele>550.1</ele><time>2015-01-01T11:00:43Z</time></trkpt><trkpt lat="39.598290" lon="-7.210670"><ele>550.3</ele><time>2015-01-01T11:01:24Z</time></trkpt><trkpt lat="39.598380" lon="-7.210490"><ele>549.0</ele><time>2015-01-01T11:02:06Z</time></trkpt><trkpt lat="39.598428" lon="-7.210314"><ele>547.2</ele><time>2015-01-01T11:02:47Z</time></trkpt><trkpt lat="39.598485" lon="-7.210356"><ele>546.3</ele><time>2015-01-01T11:03:28Z</time></trkpt><trkpt lat="39.598710" lon="-7.210430"><ele>542.2</ele><time>2015-01-01T11:04:10Z</time></trkpt><trkpt lat="39.598870" lon="-7.210440"><ele>538.2</ele><time>2015-01-01T11:04:51Z</time></trkpt><trkpt lat="39.599040" lon="-7.210510"><ele>535.2</ele><time>2015-01-01T11:05:33Z</time></trkpt><trkpt lat="39.599410" lon="-7.210790"><ele>536.2</ele><time>2015-01-01T11:06:14Z</time></trkpt><trkpt lat="39.599920" lon="-7.210890"><ele>536.1</ele><time>2015-01-01T11:06:55Z</time></trkpt><trkpt lat="39.600100" lon="-7.210810"><ele>533.2</ele><time>2015-01-01T11:07:37Z</time></trkpt><trkpt lat="39.600150" lon="-7.210700"><ele>529.4</ele><time>2015-01-01T11:08:18Z</time></trkpt><trkpt lat="39.600060" lon="-7.210590"><ele>525.9</ele><time>2015-01-01T11:09:00Z</time></trkpt><trkpt lat="39.599986" lon="-7.210548"><ele>524.8</ele><time>2015-01-01T11:09:41Z</time></trkpt><trkpt lat="39.599930" lon="-7.210470"><ele>522.4</ele><time>2015-01-01T11:10:22Z</time></trkpt><trkpt lat="39.599850" lon="-7.210300"><ele>516.9</ele><time>2015-01-01T11:11:04Z</time></trkpt><trkpt lat="39.599640" lon="-7.210060"><ele>512.7</ele><time>2015-01-01T11:11:45Z</time></trkpt><trkpt lat="39.599560" lon="-7.209850"><ele>511.2</ele><time>2015-01-01T11:12:27Z</time></trkpt><trkpt lat="39.599400" lon="-7.209400"><ele>509.3</ele><time>2015-01-01T11:13:08Z</time></trkpt><trkpt lat="39.599340" lon="-7.208530"><ele>504.1</ele><time>2015-01-01T11:13:49Z</time></trkpt><trkpt lat="39.599370" lon="-7.208330"><ele>502.4</ele><time>2015-01-01T11:14:31Z</time></trkpt><trkpt lat="39.599370" lon="-7.207860"><ele>497.8</ele><time>2015-01-01T11:15:12Z</time></trkpt><trkpt lat="39.599430" lon="-7.207610"><ele>495.1</ele><time>2015-01-01T11:15:54Z</time></trkpt><trkpt lat="39.599500" lon="-7.207550"><ele>493.0</ele><time>2015-01-01T11:16:35Z</time></trkpt><trkpt lat="39.599540" lon="-7.207610"><ele>491.4</ele><time>2015-01-01T11:17:16Z</time></trkpt><trkpt lat="39.599580" lon="-7.207870"><ele>490.0</ele><time>2015-01-01T11:17:58Z</time></trkpt><trkpt lat="39.599630" lon="-7.208240"><ele>491.2</ele><time>2015-01-01T11:18:39Z</time></trkpt><trkpt lat="39.599800" lon="-7.208650"><ele>486.9</ele><time>2015-01-01T11:19:21Z</time></trkpt><trkpt lat="39.599980" lon="-7.208870"><ele>486.0</ele><time>2015-01-01T11:20:02Z</time></trkpt><trkpt lat="39.600200" lon="-7.208915"><ele>481.7</ele><time>2015-01-01T11:20:43Z</time></trkpt><trkpt lat="39.600223" lon="-7.208833"><ele>479.0</ele><time>2015-01-01T11:21:25Z</time></trkpt><trkpt lat="39.600089" lon="-7.208609"><ele>476.7</ele><time>2015-01-01T11:22:06Z</time></trkpt><trkpt lat="39.600110" lon="-7.208220"><ele>470.7</ele><time>2015-01-01T11:22:48Z</time></trkpt><trkpt lat="39.600170" lon="-7.207980"><ele>466.5</ele><time>2015-01-01T11:23:29Z</time></trkpt><trkpt lat="39.600209" lon="-7.207869"><ele>464.6</ele><time>2015-01-01T11:24:10Z</time></trkpt><trkpt lat="39.600277" lon="-7.207675"><ele>461.7</ele><time>2015-01-01T11:24:52Z</time></trkpt><trkpt lat="39.600420" lon="-7.207395"><ele>456.9</ele><time>2015-01-01T11:25:33Z</time></trkpt><trkpt lat="39.600570" lon="-7.207080"><ele>452.6</ele><time>2015-01-01T11:26:15Z</time></trkpt><trkpt lat="39.600619" lon="-7.207017"><ele>451.0</ele><time>2015-01-01T11:26:56Z</time></trkpt><trkpt lat="39.600692" lon="-7.206972"><ele>448.6</ele><time>2015-01-01T11:27:37Z</time></trkpt><trkpt lat="39.600730" lon="-7.206956"><ele>447.4</ele><time>2015-01-01T11:28:19Z</time></trkpt><trkpt lat="39.600787" lon="-7.206957"><ele>445.5</ele><time>2015-01-01T11:29:00Z</time></trkpt><trkpt lat="39.600813" lon="-7.207024"><ele>444.9</ele><time>2015-01-01T11:29:42Z</time></trkpt><trkpt lat="39.600820" lon="-7.207079"><ele>444.9</ele><time>2015-01-01T11:30:23Z</time></trkpt><trkpt lat="39.600882" lon="-7.207313"><ele>445.0</ele><time>2015-01-01T11:31:04Z</time></trkpt><trkpt lat="39.600945" lon="-7.207428"><ele>445.7</ele><time>2015-01-01T11:31:46Z</time></trkpt><trkpt lat="39.601016" lon="-7.207493"><ele>446.2</ele><time>2015-01-01T11:32:27Z</time></trkpt><trkpt lat="39.601061" lon="-7.207477"><ele>445.7</ele><time>2015-01-01T11:33:09Z</time></trkpt><trkpt lat="39.601098" lon="-7.207447"><ele>444.9</ele><time>2015-01-01T11:33:50Z</time></trkpt><trkpt lat="39.601040" lon="-7.207187"><ele>440.9</ele><time>2015-01-01T11:34:31Z</time></trkpt><trkpt lat="39.601101" lon="-7.207025"><ele>437.4</ele><time>2015-01-01T11:35:13Z</time></trkpt><trkpt lat="39.601190" lon="-7.206880"><ele>435.2</ele><time>2015-01-01T11:35:54Z</time></trkpt><trkpt lat="39.601265" lon="-7.206581"><ele>431.9</ele><time>2015-01-01T11:36:36Z</time></trkpt><trkpt lat="39.601350" lon="-7.206060"><ele>427.0</ele><time>2015-01-01T11:37:17Z</time></trkpt><trkpt lat="39.601422" lon="-7.206050"><ele>425.4</ele><time>2015-01-01T11:37:58Z</time></trkpt><trkpt lat="39.601501" lon="-7.206415"><ele>427.0</ele><time>2015-01-01T11:38:40Z</time></trkpt><trkpt lat="39.601567" lon="-7.206407"><ele>426.6</ele><time>2015-01-01T11:39:21Z</time></trkpt><trkpt lat="39.601660" lon="-7.206240"><ele>423.4</ele><time>2015-01-01T11:40:03Z</time></trkpt><trkpt lat="39.601833" lon="-7.205696"><ele>414.5</ele><time>2015-01-01T11:40:44Z</time></trkpt><trkpt lat="39.601946" lon="-7.205309"><ele>409.1</ele><time>2015-01-01T11:41:25Z</time></trkpt><trkpt lat="39.602008" lon="-7.205121"><ele>408.4</ele><time>2015-01-01T11:42:07Z</time></trkpt><trkpt lat="39.602160" lon="-7.204860"><ele>405.0</ele><time>2015-01-01T11:42:48Z</time></trkpt><trkpt lat="39.602260" lon="-7.204430"><ele>399.8</ele><time>2015-01-01T11:43:30Z</time></trkpt><trkpt lat="39.602540" lon="-7.203820"><ele>391.0</ele><time>2015-01-01T11:44:11Z</time></trkpt><trkpt lat="39.602880" lon="-7.203260"><ele>385.8</ele><time>2015-01-01T11:44:52Z</time></trkpt><trkpt lat="39.602946" lon="-7.203131"><ele>384.7</ele><time>2015-01-01T11:45:34Z</time></trkpt><trkpt lat="39.603177" lon="-7.202779"><ele>378.8</ele><time>2015-01-01T11:46:15Z</time></trkpt><trkpt lat="39.603277" lon="-7.202496"><ele>376.2</ele><time>2015-01-01T11:46:57Z</time></trkpt><trkpt lat="39.603465" lon="-7.201973"><ele>370.7</ele><time>2015-01-01T11:47:38Z</time></trkpt><trkpt lat="39.603573" lon="-7.201674"><ele>369.5</ele><time>2015-01-01T11:48:19Z</time></trkpt><trkpt lat="39.603669" lon="-7.201499"><ele>368.6</ele><time>2015-01-01T11:49:01Z</time></trkpt><trkpt lat="39.603700" lon="-7.201327"><ele>368.1</ele><time>2015-01-01T11:49:42Z</time></trkpt><trkpt lat="39.603815" lon="-7.201067"><ele>365.5</ele><time>2015-01-01T11:50:24Z</time></trkpt><trkpt lat="39.603863" lon="-7.200964"><ele>364.2</ele><time>2015-01-01T11:51:05Z</time></trkpt><trkpt lat="39.603861" lon="-7.200839"><ele>363.3</ele><time>2015-01-01T11:51:46Z</time></trkpt><trkpt lat="39.603818" lon="-7.200776"><ele>363.7</ele><time>2015-01-01T11:52:28Z</time></trkpt><trkpt lat="39.603420" lon="-7.200490"><ele>364.7</ele><time>2015-01-01T11:53:09Z</time></trkpt><trkpt lat="39.603321" lon="-7.200416"><ele>364.7</ele><time>2015-01-01T11:53:51Z</time></trkpt><trkpt lat="39.603291" lon="-7.200371"><ele>364.7</ele><time>2015-01-01T11:54:32Z</time></trkpt><trkpt lat="39.603310" lon="-7.200306"><ele>363.7</ele><time>2015-01-01T11:55:13Z</time></trkpt><trkpt lat="39.603341" lon="-7.200259"><ele>362.8</ele><time>2015-01-01T11:55:55Z</time></trkpt><trkpt lat="39.603433" lon="-7.200084"><ele>360.6</ele><time>2015-01-01T11:56:36Z</time></trkpt><trkpt lat="39.603480" lon="-7.199720"><ele>355.4</ele><time>2015-01-01T11:57:18Z</time></trkpt><trkpt lat="39.603480" lon="-7.199720"><ele>355.4</ele><time>2015-01-01T11:57:59Z</time></trkpt><trkpt lat="39.603480" lon="-7.199720"><ele>355.4</ele><time>2015-01-01T11:58:40Z</time></trkpt><trkpt lat="39.603480" lon="-7.199720"><ele>355.4</ele><time>2015-01-01T11:59:22Z</time></trkpt><trkpt lat="39.603920" lon="-7.199190"><ele>350.4</ele><time>2015-01-01T12:00:03Z</time></trkpt><trkpt lat="39.603801" lon="-7.198986"><ele>348.9</ele><time>2015-01-01T12:00:45Z</time></trkpt><trkpt lat="39.603381" lon="-7.198607"><ele>349.6</ele><time>2015-01-01T12:01:26Z</time></trkpt><trkpt lat="39.603337" lon="-7.198241"><ele>348.6</ele><time>2015-01-01T12:02:07Z</time></trkpt><trkpt lat="39.603490" lon="-7.197910"><ele>345.9</ele><time>2015-01-01T12:02:49Z</time></trkpt><trkpt lat="39.603596" lon="-7.197687"><ele>344.4</ele><time>2015-01-01T12:03:30Z</time></trkpt><trkpt lat="39.603621" lon="-7.197375"><ele>342.0</ele><time>2015-01-01T12:04:12Z</time></trkpt><trkpt lat="39.603136" lon="-7.197169"><ele>342.0</ele><time>2015-01-01T12:04:53Z</time></trkpt></trkseg></trk></gpx>